createdAt,value
2018-03-09T00:00:38.946Z,89.58
2018-03-09T00:01:19.498Z,89.58
2018-03-09T00:02:00.199Z,89.76
2018-03-09T00:02:40.754Z,89.76
2018-03-09T00:03:21.312Z,89.76
2018-03-09T00:04:01.869Z,89.58
2018-03-09T00:04:42.422Z,89.67
2018-03-09T00:05:22.988Z,90.05
2018-03-09T00:06:03.634Z,90.05
2018-03-09T00:06:44.108Z,89.91
2018-03-09T00:07:24.729Z,89.86
2018-03-09T00:08:05.241Z,90
2018-03-09T00:08:45.781Z,90.33
2018-03-09T00:09:26.342Z,89.34
2018-03-09T00:10:06.905Z,89.62
2018-03-09T00:10:47.459Z,89.53
2018-03-09T00:11:28.013Z,89.06
2018-03-09T00:12:08.559Z,90.29
2018-03-09T00:12:49.126Z,89.91
2018-03-09T00:13:29.677Z,89.81
2018-03-09T00:14:10.251Z,89.91
2018-03-09T00:14:50.820Z,89.53
2018-03-09T00:15:31.419Z,89.53
2018-03-09T00:16:11.976Z,89.53
2018-03-09T00:16:52.519Z,89.53
2018-03-09T00:17:33.068Z,89.72
2018-03-09T00:18:13.645Z,89.81
2018-03-09T00:18:54.205Z,89.72
2018-03-09T00:19:34.769Z,90
2018-03-09T00:20:15.336Z,89.72
2018-03-09T00:20:56.003Z,89.72
2018-03-09T00:21:36.564Z,89.81
2018-03-09T00:22:17.141Z,89.81
2018-03-09T00:22:57.696Z,89.81
2018-03-09T00:23:38.266Z,89.72
2018-03-09T00:24:18.824Z,89.81
2018-03-09T00:24:59.368Z,89.62
2018-03-09T00:25:39.925Z,89.81
2018-03-09T00:26:20.486Z,90
2018-03-09T00:27:01.046Z,89.81
2018-03-09T00:27:41.602Z,90
2018-03-09T00:28:22.169Z,90
2018-03-09T00:29:02.723Z,90
2018-03-09T00:29:43.276Z,90.29
2018-03-09T00:30:23.831Z,90.1
2018-03-09T00:31:04.383Z,90
2018-03-09T00:31:44.947Z,89.81
2018-03-09T00:32:25.506Z,89.72
2018-03-09T00:33:06.065Z,89.91
2018-03-09T00:33:46.626Z,89.91
2018-03-09T00:34:27.183Z,89.72
2018-03-09T00:35:07.757Z,90
2018-03-09T00:35:48.316Z,89.72
2018-03-09T00:36:28.867Z,89.81
2018-03-09T00:37:09.432Z,90.19
2018-03-09T00:37:50.010Z,90.1
2018-03-09T00:38:30.570Z,90
2018-03-09T00:39:11.186Z,90
2018-03-09T00:39:51.755Z,90.1
2018-03-09T00:40:32.313Z,90
2018-03-09T00:41:12.870Z,89.72
2018-03-09T00:41:53.432Z,90
2018-03-09T00:42:33.971Z,90.19
2018-03-09T00:43:14.526Z,90
2018-03-09T00:43:55.072Z,90
2018-03-09T00:44:35.625Z,90
2018-03-09T00:45:16.472Z,90.48
2018-03-09T00:45:57.018Z,90.67
2018-03-09T00:46:37.577Z,90.67
2018-03-09T00:47:18.137Z,90.76
2018-03-09T00:47:58.698Z,91.14
2018-03-09T00:48:39.246Z,91.14
2018-03-09T00:49:19.798Z,91.61
2018-03-09T00:50:00.352Z,91.52
2018-03-09T00:50:40.920Z,91.71
2018-03-09T00:51:21.604Z,91.52
2018-03-09T00:52:02.170Z,91.33
2018-03-09T00:52:42.755Z,91.8
2018-03-09T00:53:23.304Z,91.28
2018-03-09T00:54:03.853Z,91.19
2018-03-09T00:54:44.412Z,91.33
2018-03-09T00:55:24.978Z,91.85
2018-03-09T00:56:05.565Z,92.14
2018-03-09T00:56:46.119Z,92.23
2018-03-09T00:57:26.670Z,92.23
2018-03-09T00:58:07.226Z,92.33
2018-03-09T00:58:47.788Z,92.33
2018-03-09T00:59:28.347Z,92.04
2018-03-09T01:00:08.913Z,92.9
2018-03-09T01:00:49.487Z,92.8
2018-03-09T01:01:30.042Z,92.71
2018-03-09T01:02:10.597Z,92.61
2018-03-09T01:02:51.159Z,92.9
2018-03-09T01:03:31.711Z,92.42
2018-03-09T01:04:12.298Z,92.71
2018-03-09T01:04:52.848Z,93.08
2018-03-09T01:05:33.404Z,93.18
2018-03-09T01:06:13.963Z,92.99
2018-03-09T01:06:54.541Z,92.9
2018-03-09T01:07:35.098Z,92.71
2018-03-09T01:08:15.661Z,92.99
2018-03-09T01:08:56.234Z,92.9
2018-03-09T01:09:36.814Z,92.99
2018-03-09T01:10:17.403Z,92.8
2018-03-09T01:10:57.977Z,93.65
2018-03-09T01:11:38.530Z,93.37
2018-03-09T01:12:19.117Z,93.37
2018-03-09T01:12:59.681Z,93.08
2018-03-09T01:13:40.269Z,93.94
2018-03-09T01:14:20.827Z,93.84
2018-03-09T01:15:01.376Z,93.84
2018-03-09T01:15:41.933Z,94.23
2018-03-09T01:16:25.051Z,93.56
2018-03-09T01:17:05.616Z,93.46
2018-03-09T01:17:46.216Z,93.75
2018-03-09T01:18:26.745Z,93.46
2018-03-09T01:19:07.379Z,94.04
2018-03-09T01:19:47.902Z,94.32
2018-03-09T01:20:28.452Z,93.94
2018-03-09T01:21:08.999Z,94.32
2018-03-09T01:21:49.550Z,94.32
2018-03-09T01:22:30.141Z,94.51
2018-03-09T01:23:10.668Z,94.51
2018-03-09T01:23:51.223Z,94.42
2018-03-09T01:24:31.781Z,94.6
2018-03-09T01:25:12.343Z,94.42
2018-03-09T01:25:52.903Z,94.6
2018-03-09T01:26:33.455Z,94.42
2018-03-09T01:27:14.007Z,94.98
2018-03-09T01:27:54.564Z,94.13
2018-03-09T01:28:35.118Z,94.79
2018-03-09T01:29:15.675Z,94.6
2018-03-09T01:29:56.229Z,94.6
2018-03-09T01:30:36.782Z,94.32
2018-03-09T01:31:17.329Z,95.07
2018-03-09T01:31:57.935Z,95.17
2018-03-09T01:32:38.520Z,95.17
2018-03-09T01:33:19.074Z,94.98
2018-03-09T01:33:59.628Z,94.89
2018-03-09T01:34:40.195Z,94.98
2018-03-09T01:35:20.765Z,94.7
2018-03-09T01:36:01.317Z,94.98
2018-03-09T01:36:41.862Z,95.07
2018-03-09T01:37:22.420Z,95.17
2018-03-09T01:38:02.957Z,95.07
2018-03-09T01:38:43.509Z,95.07
2018-03-09T01:39:24.062Z,94.79
2018-03-09T01:40:04.616Z,94.79
2018-03-09T01:40:45.167Z,95.17
2018-03-09T01:41:25.717Z,94.98
2018-03-09T01:42:06.269Z,94.89
2018-03-09T01:42:46.828Z,94.98
2018-03-09T01:43:27.462Z,95.07
2018-03-09T01:44:07.953Z,94.42
2018-03-09T01:44:48.513Z,93.94
2018-03-09T01:45:29.084Z,95.45
2018-03-09T01:46:09.636Z,95.07
2018-03-09T01:46:50.191Z,95.45
2018-03-09T01:47:30.741Z,95.55
2018-03-09T01:48:11.317Z,94.32
2018-03-09T01:48:51.876Z,95.17
2018-03-09T01:49:32.453Z,95.26
2018-03-09T01:50:13.027Z,95.07
2018-03-09T01:50:53.615Z,94.7
2018-03-09T01:51:34.233Z,94.23
2018-03-09T01:52:14.799Z,94.42
2018-03-09T01:52:55.361Z,94.7
2018-03-09T01:53:35.927Z,94.51
2018-03-09T01:54:16.461Z,94.23
2018-03-09T01:54:57.013Z,94.32
2018-03-09T01:55:37.580Z,94.23
2018-03-09T01:56:18.132Z,94.04
2018-03-09T01:56:58.679Z,93.56
2018-03-09T01:57:39.234Z,93.65
2018-03-09T01:58:27.341Z,93.84
2018-03-09T01:59:07.906Z,93.65
2018-03-09T01:59:48.452Z,93.65
2018-03-09T02:00:29.140Z,93.75
2018-03-09T02:01:09.699Z,93.94
2018-03-09T02:01:50.254Z,94.23
2018-03-09T02:02:30.824Z,93.56
2018-03-09T02:03:11.391Z,93.84
2018-03-09T02:03:51.939Z,93.75
2018-03-09T02:04:32.503Z,93.75
2018-03-09T02:05:13.059Z,93.84
2018-03-09T02:05:53.620Z,93.27
2018-03-09T02:06:34.242Z,93.37
2018-03-09T02:07:14.808Z,93.46
2018-03-09T02:07:55.359Z,93.56
2018-03-09T02:08:35.912Z,93.56
2018-03-09T02:09:16.466Z,93.08
2018-03-09T02:09:57.056Z,93.46
2018-03-09T02:10:37.627Z,93.65
2018-03-09T02:11:18.165Z,93.37
2018-03-09T02:11:58.723Z,93.65
2018-03-09T02:12:39.280Z,93.18
2018-03-09T02:13:19.848Z,93.37
2018-03-09T02:14:00.407Z,93.37
2018-03-09T02:14:40.970Z,93.18
2018-03-09T02:15:21.528Z,92.99
2018-03-09T02:16:02.080Z,92.8
2018-03-09T02:16:42.627Z,93.65
2018-03-09T02:17:23.211Z,93.65
2018-03-09T02:18:03.781Z,93.84
2018-03-09T02:18:44.328Z,93.84
2018-03-09T02:19:24.885Z,93.84
2018-03-09T02:20:05.447Z,93.84
2018-03-09T02:20:46.009Z,93.75
2018-03-09T02:21:26.565Z,93.94
2018-03-09T02:22:07.117Z,93.84
2018-03-09T02:22:47.668Z,93.84
2018-03-09T02:23:28.267Z,94.04
2018-03-09T02:24:08.820Z,93.94
2018-03-09T02:24:49.433Z,94.23
2018-03-09T02:25:29.994Z,93.27
2018-03-09T02:26:10.557Z,93.37
2018-03-09T02:26:51.109Z,93.65
2018-03-09T02:27:31.666Z,93.18
2018-03-09T02:28:12.227Z,92.9
2018-03-09T02:28:52.813Z,93.08
2018-03-09T02:29:33.373Z,92.99
2018-03-09T02:30:13.945Z,93.08
2018-03-09T02:30:54.515Z,93.08
2018-03-09T02:31:35.086Z,92.8
2018-03-09T02:32:15.651Z,92.71
2018-03-09T02:32:56.210Z,93.08
2018-03-09T02:33:36.774Z,92.8
2018-03-09T02:34:17.332Z,93.27
2018-03-09T02:34:57.897Z,92.8
2018-03-09T02:35:38.449Z,93.18
2018-03-09T02:36:19.020Z,92.9
2018-03-09T02:36:59.576Z,92.99
2018-03-09T02:37:40.143Z,93.08
2018-03-09T02:38:20.702Z,92.61
2018-03-09T02:39:01.257Z,92.61
2018-03-09T02:39:41.824Z,92.71
2018-03-09T02:40:22.366Z,92.61
2018-03-09T02:41:02.933Z,92.33
2018-03-09T02:41:43.486Z,92.61
2018-03-09T02:42:24.038Z,92.9
2018-03-09T02:43:04.599Z,92.52
2018-03-09T02:43:45.151Z,92.8
2018-03-09T02:44:25.712Z,92.9
2018-03-09T02:45:06.265Z,92.9
2018-03-09T02:45:46.836Z,92.66
2018-03-09T02:46:27.386Z,92.99
2018-03-09T02:47:07.943Z,92.8
2018-03-09T02:47:48.493Z,92.66
2018-03-09T02:48:29.045Z,92.76
2018-03-09T02:49:09.652Z,92.66
2018-03-09T02:49:50.210Z,92.76
2018-03-09T02:50:30.769Z,92.94
2018-03-09T02:51:11.330Z,92.61
2018-03-09T02:51:51.889Z,92.61
2018-03-09T02:52:32.455Z,92.66
2018-03-09T02:53:13.021Z,92.76
2018-03-09T02:53:53.570Z,92.94
2018-03-09T02:54:34.124Z,92.47
2018-03-09T02:55:14.782Z,92.94
2018-03-09T02:55:55.349Z,92.85
2018-03-09T02:56:35.909Z,92.85
2018-03-09T02:57:16.465Z,92.66
2018-03-09T02:57:57.019Z,92.66
2018-03-09T02:58:37.588Z,92.66
2018-03-09T02:59:18.140Z,92.57
2018-03-09T02:59:58.708Z,92.94
2018-03-09T03:00:39.264Z,92.76
2018-03-09T03:01:19.825Z,92.66
2018-03-09T03:02:00.429Z,92.47
2018-03-09T03:02:41.069Z,92.38
2018-03-09T03:03:21.636Z,92.85
2018-03-09T03:04:02.212Z,92.66
2018-03-09T03:04:42.749Z,91.9
2018-03-09T03:05:23.440Z,91.9
2018-03-09T03:06:04.021Z,92.28
2018-03-09T03:06:44.561Z,92.47
2018-03-09T03:07:25.115Z,91.9
2018-03-09T03:08:05.944Z,91.9
2018-03-09T03:08:46.512Z,91.71
2018-03-09T03:09:27.057Z,92.38
2018-03-09T03:10:07.619Z,92.28
2018-03-09T03:10:48.176Z,92.38
2018-03-09T03:11:28.752Z,91.81
2018-03-09T03:12:09.296Z,92.28
2018-03-09T03:12:49.852Z,92.28
2018-03-09T03:13:30.410Z,92.19
2018-03-09T03:14:10.987Z,92.28
2018-03-09T03:14:51.540Z,92.28
2018-03-09T03:15:32.092Z,91.71
2018-03-09T03:16:12.658Z,91.62
2018-03-09T03:16:53.217Z,92.47
2018-03-09T03:17:33.933Z,92.28
2018-03-09T03:18:14.494Z,91.81
2018-03-09T03:18:55.045Z,92
2018-03-09T03:19:35.600Z,92.19
2018-03-09T03:20:16.160Z,91.14
2018-03-09T03:20:56.734Z,91.71
2018-03-09T03:21:37.293Z,91.71
2018-03-09T03:22:17.856Z,91.62
2018-03-09T03:22:58.426Z,91.9
2018-03-09T03:23:38.984Z,92.19
2018-03-09T03:24:19.536Z,92.09
2018-03-09T03:25:00.100Z,92
2018-03-09T03:25:40.652Z,91.9
2018-03-09T03:26:21.198Z,92
2018-03-09T03:27:01.760Z,92
2018-03-09T03:27:42.308Z,92.28
2018-03-09T03:28:22.877Z,92.19
2018-03-09T03:29:03.447Z,92.28
2018-03-09T03:29:44.017Z,91.71
2018-03-09T03:30:24.584Z,91.24
2018-03-09T03:31:05.150Z,91.71
2018-03-09T03:31:45.756Z,91.81
2018-03-09T03:32:26.347Z,91.81
2018-03-09T03:33:06.918Z,91.24
2018-03-09T03:33:47.483Z,91.43
2018-03-09T03:34:28.030Z,91.52
2018-03-09T03:35:08.587Z,91.24
2018-03-09T03:35:49.134Z,91.33
2018-03-09T03:36:29.692Z,91.43
2018-03-09T03:37:10.246Z,91.62
2018-03-09T03:37:50.808Z,91.14
2018-03-09T03:38:31.373Z,91.24
2018-03-09T03:39:11.940Z,91.24
2018-03-09T03:39:52.504Z,91.24
2018-03-09T03:40:33.054Z,91.43
2018-03-09T03:41:13.612Z,91.9
2018-03-09T03:41:54.180Z,91.33
2018-03-09T03:42:34.731Z,91.71
2018-03-09T03:43:15.286Z,91.43
2018-03-09T03:43:55.873Z,91.43
2018-03-09T03:44:36.466Z,91.05
2018-03-09T03:45:17.034Z,91.33
2018-03-09T03:45:57.597Z,91.71
2018-03-09T03:46:38.159Z,91.43
2018-03-09T03:47:18.706Z,91.43
2018-03-09T03:47:59.278Z,91.71
2018-03-09T03:48:39.834Z,91.24
2018-03-09T03:49:20.442Z,91.14
2018-03-09T03:50:01.089Z,91.05
2018-03-09T03:50:41.642Z,91.24
2018-03-09T03:51:22.209Z,91.33
2018-03-09T03:52:02.759Z,91.24
2018-03-09T03:52:43.321Z,91.14
2018-03-09T03:53:23.871Z,91.24
2018-03-09T03:54:04.429Z,91.33
2018-03-09T03:54:44.982Z,91.24
2018-03-09T03:55:25.552Z,91.33
2018-03-09T03:56:06.098Z,91.43
2018-03-09T03:56:46.667Z,91.43
2018-03-09T03:57:27.293Z,91.33
2018-03-09T03:58:07.846Z,91.33
2018-03-09T03:58:48.409Z,91.14
2018-03-09T03:59:28.965Z,91.14
2018-03-09T04:00:09.524Z,91.05
2018-03-09T04:00:50.088Z,91.33
2018-03-09T04:01:30.649Z,91.24
2018-03-09T04:02:11.204Z,91.24
2018-03-09T04:02:51.754Z,91.33
2018-03-09T04:03:32.324Z,90.95
2018-03-09T04:04:12.864Z,91.43
2018-03-09T04:04:53.415Z,91.33
2018-03-09T04:05:33.969Z,91.43
2018-03-09T04:06:14.529Z,91.43
2018-03-09T04:06:55.084Z,91.14
2018-03-09T04:07:35.641Z,91.33
2018-03-09T04:08:16.184Z,91.71
2018-03-09T04:08:56.740Z,91.71
2018-03-09T04:09:37.355Z,91.43
2018-03-09T04:10:17.911Z,91.43
2018-03-09T04:10:58.480Z,91.81
2018-03-09T04:11:39.030Z,91.62
2018-03-09T04:12:19.634Z,91.33
2018-03-09T04:13:00.200Z,91.81
2018-03-09T04:13:40.762Z,91.52
2018-03-09T04:14:21.312Z,91.71
2018-03-09T04:15:01.877Z,91.43
2018-03-09T04:15:42.502Z,91.33
2018-03-09T04:16:23.055Z,91.33
2018-03-09T04:17:03.621Z,91.43
2018-03-09T04:17:44.172Z,91.81
2018-03-09T04:18:24.808Z,91.33
2018-03-09T04:19:05.365Z,91.14
2018-03-09T04:19:45.919Z,91.43
2018-03-09T04:20:26.479Z,91.24
2018-03-09T04:21:07.044Z,91.14
2018-03-09T04:21:47.652Z,91.24
2018-03-09T04:22:28.206Z,91.24
2018-03-09T04:23:08.841Z,91.43
2018-03-09T04:23:49.365Z,91.62
2018-03-09T04:24:29.918Z,91.43
2018-03-09T04:25:10.519Z,91.62
2018-03-09T04:25:51.080Z,91.62
2018-03-09T04:26:31.646Z,91.33
2018-03-09T04:27:12.187Z,91.52
2018-03-09T04:27:52.733Z,91.33
2018-03-09T04:28:33.407Z,92
2018-03-09T04:29:13.973Z,91.52
2018-03-09T04:29:54.518Z,91.43
2018-03-09T04:30:35.076Z,91.62
2018-03-09T04:31:15.628Z,91.81
2018-03-09T04:31:56.181Z,92.09
2018-03-09T04:32:36.752Z,91.71
2018-03-09T04:33:17.418Z,91.52
2018-03-09T04:33:57.973Z,91.43
2018-03-09T04:34:38.534Z,92.28
2018-03-09T04:35:19.095Z,91.33
2018-03-09T04:35:59.652Z,91.33
2018-03-09T04:36:40.202Z,91.43
2018-03-09T04:37:20.768Z,91.43
2018-03-09T04:38:01.329Z,91.52
2018-03-09T04:38:41.889Z,91.81
2018-03-09T04:39:22.532Z,91.81
2018-03-09T04:40:03.084Z,91.33
2018-03-09T04:40:43.632Z,91.71
2018-03-09T04:41:24.193Z,91.71
2018-03-09T04:42:04.788Z,91.81
2018-03-09T04:42:45.378Z,91.24
2018-03-09T04:43:25.951Z,91.33
2018-03-09T04:44:06.472Z,91.62
2018-03-09T04:44:47.058Z,91.05
2018-03-09T04:45:27.864Z,91.24
2018-03-09T04:46:08.415Z,91.24
2018-03-09T04:46:48.974Z,91.43
2018-03-09T04:47:29.526Z,91.43
2018-03-09T04:48:10.084Z,91.43
2018-03-09T04:48:50.650Z,91.43
2018-03-09T04:49:31.197Z,91.33
2018-03-09T04:50:11.780Z,91.14
2018-03-09T04:50:52.330Z,91.33
2018-03-09T04:51:32.922Z,91.71
2018-03-09T04:52:13.615Z,91.33
2018-03-09T04:52:54.056Z,91.14
2018-03-09T04:53:34.609Z,91.43
2018-03-09T04:54:15.171Z,91.43
2018-03-09T04:54:55.709Z,91.33
2018-03-09T04:55:36.261Z,91.24
2018-03-09T04:56:16.820Z,91.14
2018-03-09T04:56:57.387Z,91.33
2018-03-09T04:57:37.965Z,91.43
2018-03-09T04:58:18.574Z,91.33
2018-03-09T04:58:59.130Z,91.24
2018-03-09T04:59:39.695Z,91.33
2018-03-09T05:00:20.277Z,91.43
2018-03-09T05:01:00.837Z,90.95
2018-03-09T05:01:41.388Z,91.24
2018-03-09T05:02:21.976Z,91.24
2018-03-09T05:03:02.566Z,91.52
2018-03-09T05:03:43.140Z,91.14
2018-03-09T05:04:23.698Z,91.24
2018-03-09T05:05:04.265Z,91.33
2018-03-09T05:05:44.818Z,91.43
2018-03-09T05:06:25.382Z,91.52
2018-03-09T05:07:05.947Z,91.43
2018-03-09T05:07:46.506Z,91.62
2018-03-09T05:08:27.075Z,90.95
2018-03-09T05:09:07.635Z,90.95
2018-03-09T05:09:48.212Z,91.14
2018-03-09T05:10:28.777Z,91.14
2018-03-09T05:11:09.336Z,91.05
2018-03-09T05:11:49.882Z,90.86
2018-03-09T05:12:30.441Z,91.52
2018-03-09T05:13:11.007Z,91.52
2018-03-09T05:13:51.563Z,91.05
2018-03-09T05:14:32.131Z,91.24
2018-03-09T05:15:12.704Z,91.52
2018-03-09T05:15:53.260Z,90.86
2018-03-09T05:16:33.850Z,90.77
2018-03-09T05:17:14.415Z,90.86
2018-03-09T05:17:54.970Z,91.14
2018-03-09T05:18:35.529Z,90.58
2018-03-09T05:19:16.079Z,90.95
2018-03-09T05:19:56.630Z,90.86
2018-03-09T05:20:37.188Z,90.58
2018-03-09T05:21:17.735Z,91.05
2018-03-09T05:21:58.284Z,91.05
2018-03-09T05:22:39.029Z,90.77
2018-03-09T05:23:19.611Z,90.77
2018-03-09T05:24:00.171Z,90.95
2018-03-09T05:24:40.755Z,90.95
2018-03-09T05:25:21.331Z,90.86
2018-03-09T05:26:01.904Z,90.77
2018-03-09T05:26:42.472Z,90.67
2018-03-09T05:27:23.035Z,90.48
2018-03-09T05:28:03.585Z,90.77
2018-03-09T05:28:44.205Z,91.14
2018-03-09T05:29:25.160Z,91.14
2018-03-09T05:30:05.988Z,91.05
2018-03-09T05:30:46.542Z,90.77
2018-03-09T05:31:27.104Z,90.77
2018-03-09T05:32:07.673Z,90.58
2018-03-09T05:32:48.242Z,90.48
2018-03-09T05:33:28.807Z,90.48
2018-03-09T05:34:09.368Z,90.58
2018-03-09T05:34:49.954Z,90.29
2018-03-09T05:35:30.509Z,90.58
2018-03-09T05:36:11.067Z,90.1
2018-03-09T05:36:51.681Z,89.91
2018-03-09T05:37:32.197Z,90.58
2018-03-09T05:38:12.752Z,90.48
2018-03-09T05:38:53.341Z,90.67
2018-03-09T05:39:34.051Z,90.58
2018-03-09T05:40:14.640Z,90.39
2018-03-09T05:40:55.198Z,90.58
2018-03-09T05:41:35.758Z,90.39
2018-03-09T05:42:16.346Z,90.86
2018-03-09T05:42:56.924Z,90.77
2018-03-09T05:43:37.514Z,90.58
2018-03-09T05:44:18.110Z,90.48
2018-03-09T05:44:58.783Z,90.58
2018-03-09T05:45:39.426Z,90.39
2018-03-09T05:46:20.037Z,90.67
2018-03-09T05:47:00.711Z,90.58
2018-03-09T05:47:41.280Z,90.58
2018-03-09T05:48:21.938Z,90.58
2018-03-09T05:49:02.626Z,90.58
2018-03-09T05:49:43.303Z,90.48
2018-03-09T05:50:23.911Z,90.39
2018-03-09T05:51:04.490Z,90.39
2018-03-09T05:51:45.022Z,90.58
2018-03-09T05:52:25.621Z,90.77
2018-03-09T05:53:06.183Z,90.58
2018-03-09T05:53:46.935Z,90.39
2018-03-09T05:54:27.509Z,90.67
2018-03-09T05:55:08.057Z,90.2
2018-03-09T05:55:48.623Z,90.2
2018-03-09T05:56:29.199Z,89.91
2018-03-09T05:57:09.746Z,90.29
2018-03-09T05:57:50.664Z,89.72
2018-03-09T05:58:31.220Z,89.82
2018-03-09T05:59:11.790Z,90.01
2018-03-09T05:59:52.349Z,90.29
2018-03-09T06:00:32.967Z,90.01
2018-03-09T06:01:13.678Z,90.1
2018-03-09T06:01:54.229Z,90.48
2018-03-09T06:02:34.786Z,90.48
2018-03-09T06:03:15.376Z,90.48
2018-03-09T06:03:55.960Z,90.29
2018-03-09T06:04:36.519Z,89.72
2018-03-09T06:05:17.051Z,90.2
2018-03-09T06:05:57.685Z,90.1
2018-03-09T06:06:38.258Z,90.2
2018-03-09T06:07:18.868Z,89.91
2018-03-09T06:07:59.442Z,89.82
2018-03-09T06:08:40.006Z,89.72
2018-03-09T06:09:20.695Z,89.82
2018-03-09T06:10:01.273Z,89.63
2018-03-09T06:10:41.897Z,89.63
2018-03-09T06:11:22.441Z,89.82
2018-03-09T06:12:02.996Z,89.91
2018-03-09T06:12:43.566Z,89.72
2018-03-09T06:13:24.151Z,89.82
2018-03-09T06:14:04.717Z,89.63
2018-03-09T06:14:45.279Z,90.01
2018-03-09T06:15:25.869Z,89.82
2018-03-09T06:16:06.441Z,89.63
2018-03-09T06:16:46.998Z,89.91
2018-03-09T06:17:27.561Z,89.34
2018-03-09T06:18:08.154Z,89.34
2018-03-09T06:18:48.708Z,89.15
2018-03-09T06:19:29.277Z,90.01
2018-03-09T06:20:09.854Z,89.91
2018-03-09T06:20:50.491Z,89.25
2018-03-09T06:21:31.127Z,89.53
2018-03-09T06:22:11.690Z,89.72
2018-03-09T06:22:52.292Z,89.72
2018-03-09T06:23:32.866Z,89.34
2018-03-09T06:24:13.432Z,89.34
2018-03-09T06:24:54.027Z,89.44
2018-03-09T06:25:34.588Z,89.53
2018-03-09T06:26:15.142Z,89.44
2018-03-09T06:26:55.703Z,89.53
2018-03-09T06:27:36.308Z,89.34
2018-03-09T06:28:16.898Z,89.53
2018-03-09T06:28:57.449Z,88.96
2018-03-09T06:29:38.022Z,89.34
2018-03-09T06:30:18.620Z,89.15
2018-03-09T06:30:59.179Z,88.78
2018-03-09T06:31:39.729Z,88.87
2018-03-09T06:32:20.305Z,88.96
2018-03-09T06:33:00.861Z,89.44
2018-03-09T06:33:41.435Z,89.25
2018-03-09T06:34:21.996Z,89.63
2018-03-09T06:35:02.594Z,89.44
2018-03-09T06:35:43.143Z,89.34
2018-03-09T06:36:23.699Z,88.87
2018-03-09T06:37:04.313Z,89.06
2018-03-09T06:37:44.860Z,89.06
2018-03-09T06:38:25.428Z,88.96
2018-03-09T06:39:06.020Z,88.96
2018-03-09T06:39:46.589Z,88.96
2018-03-09T06:40:27.141Z,88.87
2018-03-09T06:41:07.700Z,88.68
2018-03-09T06:41:48.455Z,88.87
2018-03-09T06:42:29.009Z,88.78
2018-03-09T06:43:09.665Z,88.87
2018-03-09T06:43:50.216Z,89.25
2018-03-09T06:44:30.896Z,89.15
2018-03-09T06:45:11.566Z,88.96
2018-03-09T06:45:52.206Z,88.96
2018-03-09T06:46:32.822Z,89.15
2018-03-09T06:47:13.419Z,88.49
2018-03-09T06:47:54.005Z,88.21
2018-03-09T06:48:34.564Z,88.4
2018-03-09T06:49:15.129Z,88.02
2018-03-09T06:49:55.712Z,88.68
2018-03-09T06:50:36.285Z,88.68
2018-03-09T06:51:16.844Z,88.4
2018-03-09T06:51:57.525Z,88.3
2018-03-09T06:52:38.125Z,88.3
2018-03-09T06:53:18.692Z,88.68
2018-03-09T06:53:59.258Z,88.82
2018-03-09T06:54:39.854Z,88.54
2018-03-09T06:55:20.403Z,88.68
2018-03-09T06:56:01.033Z,88.4
2018-03-09T06:56:41.593Z,87.97
2018-03-09T06:57:22.231Z,88.54
2018-03-09T06:58:02.873Z,88.44
2018-03-09T06:58:43.442Z,87.87
2018-03-09T06:59:24.008Z,87.87
2018-03-09T07:00:04.634Z,87.59
2018-03-09T07:00:45.176Z,87.97
2018-03-09T07:01:25.760Z,88.44
2018-03-09T07:02:06.354Z,88.25
2018-03-09T07:02:47.056Z,88.44
2018-03-09T07:03:27.628Z,87.87
2018-03-09T07:04:08.202Z,87.59
2018-03-09T07:04:48.846Z,87.59
2018-03-09T07:05:29.409Z,87.12
2018-03-09T07:06:09.983Z,87.4
2018-03-09T07:06:50.573Z,87.3
2018-03-09T07:07:31.160Z,87.3
2018-03-09T07:08:11.726Z,87.49
2018-03-09T07:08:52.517Z,87.4
2018-03-09T07:09:33.011Z,87.3
2018-03-09T07:10:13.575Z,87.49
2018-03-09T07:10:54.180Z,87.21
2018-03-09T07:11:34.725Z,86.83
2018-03-09T07:12:15.275Z,86.74
2018-03-09T07:12:55.844Z,86.74
2018-03-09T07:13:36.473Z,86.93
2018-03-09T07:14:17.212Z,86.45
2018-03-09T07:14:57.654Z,86.83
2018-03-09T07:15:38.225Z,86.55
2018-03-09T07:16:18.782Z,86.83
2018-03-09T07:16:59.352Z,86.64
2018-03-09T07:17:39.904Z,86.55
2018-03-09T07:18:20.496Z,86.74
2018-03-09T07:19:01.082Z,86.83
2018-03-09T07:19:41.665Z,86.74
2018-03-09T07:20:22.402Z,86.83
2018-03-09T07:21:02.959Z,87.02
2018-03-09T07:21:43.529Z,86.74
2018-03-09T07:22:24.159Z,86.55
2018-03-09T07:23:04.744Z,86.35
2018-03-09T07:23:45.446Z,86.07
2018-03-09T07:24:26.118Z,86.35
2018-03-09T07:25:06.722Z,85.78
2018-03-09T07:25:47.550Z,85.13
2018-03-09T07:26:28.154Z,85.22
2018-03-09T07:27:08.722Z,84.94
2018-03-09T07:27:49.281Z,85.6
2018-03-09T07:28:29.879Z,85.31
2018-03-09T07:29:10.669Z,85.22
2018-03-09T07:29:51.495Z,85.41
2018-03-09T07:30:32.149Z,85.13
2018-03-09T07:31:12.836Z,85.13
2018-03-09T07:31:53.414Z,85.22
2018-03-09T07:32:33.970Z,85.03
2018-03-09T07:33:14.526Z,85.41
2018-03-09T07:33:55.142Z,85.5
2018-03-09T07:34:35.704Z,85.03
2018-03-09T07:35:16.373Z,85.13
2018-03-09T07:35:56.937Z,85.31
2018-03-09T07:36:37.501Z,85.41
2018-03-09T07:37:18.074Z,85.31
2018-03-09T07:37:58.626Z,85.03
2018-03-09T07:38:39.187Z,85.13
2018-03-09T07:39:19.744Z,85.97
2018-03-09T07:40:00.301Z,85.41
2018-03-09T07:40:40.874Z,85.41
2018-03-09T07:41:21.452Z,84.74
2018-03-09T07:42:02.016Z,84.94
2018-03-09T07:42:42.561Z,84.94
2018-03-09T07:43:23.130Z,84.46
2018-03-09T07:44:03.810Z,84.69
2018-03-09T07:44:44.358Z,84.94
2018-03-09T07:45:24.968Z,84.84
2018-03-09T07:46:05.531Z,85.03
2018-03-09T07:46:46.091Z,85.6
2018-03-09T07:47:26.695Z,85.26
2018-03-09T07:48:07.256Z,85.36
2018-03-09T07:48:47.818Z,85.41
2018-03-09T07:49:28.393Z,85.31
2018-03-09T07:50:08.995Z,85.45
2018-03-09T07:50:49.675Z,85.36
2018-03-09T07:51:30.256Z,85.26
2018-03-09T07:52:10.867Z,85.26
2018-03-09T07:52:51.434Z,85.17
2018-03-09T07:53:32.006Z,85.17
2018-03-09T07:54:12.558Z,84.98
2018-03-09T07:54:53.125Z,85.26
2018-03-09T07:55:33.720Z,84.78
2018-03-09T07:56:14.318Z,84.78
2018-03-09T07:56:54.867Z,84.98
2018-03-09T07:57:35.446Z,84.5
2018-03-09T07:58:16.047Z,84.78
2018-03-09T07:58:56.602Z,84.69
2018-03-09T07:59:37.152Z,84.12
2018-03-09T08:00:17.733Z,84.12
2018-03-09T08:00:58.278Z,84.31
2018-03-09T08:01:38.884Z,83.94
2018-03-09T08:02:19.424Z,84.22
2018-03-09T08:02:59.988Z,84.22
2018-03-09T08:03:40.546Z,84.41
2018-03-09T08:04:21.266Z,83.84
2018-03-09T08:05:01.869Z,83.84
2018-03-09T08:05:42.430Z,83.94
2018-03-09T08:06:22.995Z,83.84
2018-03-09T08:07:03.723Z,83.46
2018-03-09T08:07:44.158Z,83.65
2018-03-09T08:08:24.719Z,83.74
2018-03-09T08:09:05.304Z,83.55
2018-03-09T08:09:45.874Z,83.55
2018-03-09T08:10:26.442Z,83.65
2018-03-09T08:11:07.063Z,83.65
2018-03-09T08:11:47.659Z,83.36
2018-03-09T08:12:28.283Z,83.17
2018-03-09T08:13:08.940Z,83.17
2018-03-09T08:13:49.562Z,82.98
2018-03-09T08:14:30.126Z,82.23
2018-03-09T08:15:10.685Z,82.32
2018-03-09T08:15:51.238Z,82.7
2018-03-09T08:16:31.840Z,82.51
2018-03-09T08:17:12.402Z,82.42
2018-03-09T08:17:53.010Z,82.89
2018-03-09T08:18:33.698Z,82.7
2018-03-09T08:19:14.306Z,82.6
2018-03-09T08:19:54.867Z,82.32
2018-03-09T08:20:35.426Z,81.85
2018-03-09T08:21:16.004Z,82.04
2018-03-09T08:21:56.603Z,81.75
2018-03-09T08:22:37.174Z,81.66
2018-03-09T08:23:17.759Z,81.75
2018-03-09T08:23:58.321Z,82.32
2018-03-09T08:24:38.880Z,82.13
2018-03-09T08:25:19.451Z,82.13
2018-03-09T08:26:00.013Z,82.08
2018-03-09T08:26:40.828Z,82.08
2018-03-09T08:27:21.318Z,81.79
2018-03-09T08:28:01.886Z,81.6
2018-03-09T08:28:43.351Z,80.75
2018-03-09T08:29:23.000Z,80.27
2018-03-09T08:30:03.633Z,79.99
2018-03-09T08:30:44.224Z,79.8
2018-03-09T08:31:24.792Z,79.99
2018-03-09T08:32:05.342Z,79.99
2018-03-09T08:32:45.911Z,79.42
2018-03-09T08:33:26.493Z,79.61
2018-03-09T08:34:07.059Z,78.85
2018-03-09T08:34:47.623Z,78.85
2018-03-09T08:35:28.223Z,78.95
2018-03-09T08:36:08.790Z,78.95
2018-03-09T08:36:49.341Z,78.75
2018-03-09T08:37:29.913Z,78.66
2018-03-09T08:38:10.495Z,78.75
2018-03-09T08:38:51.069Z,78.66
2018-03-09T08:39:31.627Z,78.66
2018-03-09T08:40:12.251Z,78.66
2018-03-09T08:40:52.827Z,78.95
2018-03-09T08:41:33.396Z,78.75
2018-03-09T08:42:13.954Z,78.66
2018-03-09T08:42:54.580Z,78.66
2018-03-09T08:43:35.138Z,78.95
2018-03-09T08:44:15.716Z,78.75
2018-03-09T08:44:56.264Z,78.8
2018-03-09T08:45:36.834Z,78.51